sensor_id;sensor_type;location;lat;lon;timestamp;temperature;humidity
76577;DHT22;65441;44.748;37.600;2023-05-02T00:00:44;10.54;87.32
76577;DHT22;65441;44.748;37.600;2023-05-02T00:03:13;10.66;87.25
76577;DHT22;65441;44.748;37.600;2023-05-02T00:05:43;10.65;87.46
76577;DHT22;65441;44.748;37.600;2023-05-02T00:08:11;10.69;87.05
76577;DHT22;65441;44.748;37.600;2023-05-02T00:10:40;10.65;86.96
76577;DHT22;65441;44.748;37.600;2023-05-02T00:13:09;10.65;87.02
76577;DHT22;65441;44.748;37.600;2023-05-02T00:15:38;10.59;87.06
76577;DHT22;65441;44.748;37.600;2023-05-02T00:18:08;10.54;87.41
76577;DHT22;65441;44.748;37.600;2023-05-02T00:20:39;10.56;87.51
76577;DHT22;65441;44.748;37.600;2023-05-02T00:23:08;10.57;87.90
76577;DHT22;65441;44.748;37.600;2023-05-02T00:25:43;10.64;87.08
76577;DHT22;65441;44.748;37.600;2023-05-02T00:28:12;10.66;86.72
76577;DHT22;65441;44.748;37.600;2023-05-02T00:30:44;10.70;86.62
76577;DHT22;65441;44.748;37.600;2023-05-02T00:33:15;10.57;86.79
76577;DHT22;65441;44.748;37.600;2023-05-02T00:35:44;10.48;86.97
76577;DHT22;65441;44.748;37.600;2023-05-02T00:38:13;10.37;86.80
76577;DHT22;65441;44.748;37.600;2023-05-02T00:40:43;10.25;87.23
76577;DHT22;65441;44.748;37.600;2023-05-02T00:43:13;10.26;86.97
76577;DHT22;65441;44.748;37.600;2023-05-02T00:45:43;10.25;87.41
76577;DHT22;65441;44.748;37.600;2023-05-02T00:48:12;10.31;87.37
76577;DHT22;65441;44.748;37.600;2023-05-02T00:50:42;10.35;87.26
76577;DHT22;65441;44.748;37.600;2023-05-02T00:53:12;10.34;87.49
76577;DHT22;65441;44.748;37.600;2023-05-02T00:55:41;10.31;87.44
76577;DHT22;65441;44.748;37.600;2023-05-02T00:58:12;10.33;87.30
76577;DHT22;65441;44.748;37.600;2023-05-02T01:00:58;10.37;87.22
76577;DHT22;65441;44.748;37.600;2023-05-02T01:03:34;10.27;87.58
76577;DHT22;65441;44.748;37.600;2023-05-02T01:06:14;10.22;87.85
76577;DHT22;65441;44.748;37.600;2023-05-02T01:08:51;10.25;88.31
76577;DHT22;65441;44.748;37.600;2023-05-02T01:11:28;10.25;88.38
76577;DHT22;65441;44.748;37.600;2023-05-02T01:14:04;10.30;88.09
76577;DHT22;65441;44.748;37.600;2023-05-02T01:16:35;10.31;88.10
76577;DHT22;65441;44.748;37.600;2023-05-02T01:19:12;10.35;87.83
76577;DHT22;65441;44.748;37.600;2023-05-02T01:21:45;10.41;88.10
76577;DHT22;65441;44.748;37.600;2023-05-02T01:24:18;10.41;88.22
76577;DHT22;65441;44.748;37.600;2023-05-02T01:26:53;10.29;87.55
76577;DHT22;65441;44.748;37.600;2023-05-02T01:29:31;10.30;87.70
76577;DHT22;65441;44.748;37.600;2023-05-02T01:32:01;10.25;87.99
76577;DHT22;65441;44.748;37.600;2023-05-02T01:34:32;10.30;87.92
76577;DHT22;65441;44.748;37.600;2023-05-02T01:37:02;10.41;88.34
76577;DHT22;65441;44.748;37.600;2023-05-02T01:39:34;10.35;87.28
76577;DHT22;65441;44.748;37.600;2023-05-02T01:42:05;10.31;87.28
76577;DHT22;65441;44.748;37.600;2023-05-02T01:44:40;10.24;87.18
76577;DHT22;65441;44.748;37.600;2023-05-02T01:47:11;10.20;87.72
76577;DHT22;65441;44.748;37.600;2023-05-02T01:49:41;10.26;88.11
76577;DHT22;65441;44.748;37.600;2023-05-02T01:52:11;10.34;88.16
76577;DHT22;65441;44.748;37.600;2023-05-02T01:54:42;10.38;87.80
76577;DHT22;65441;44.748;37.600;2023-05-02T01:57:11;10.36;87.97
76577;DHT22;65441;44.748;37.600;2023-05-02T01:59:43;10.42;87.89
76577;DHT22;65441;44.748;37.600;2023-05-02T02:02:13;10.35;88.60
76577;DHT22;65441;44.748;37.600;2023-05-02T02:04:46;10.31;88.35
76577;DHT22;65441;44.748;37.600;2023-05-02T02:07:16;10.30;88.52
76577;DHT22;65441;44.748;37.600;2023-05-02T02:09:45;10.28;88.49
76577;DHT22;65441;44.748;37.600;2023-05-02T02:12:19;10.38;88.51
76577;DHT22;65441;44.748;37.600;2023-05-02T02:14:55;10.41;88.62
76577;DHT22;65441;44.748;37.600;2023-05-02T02:17:28;10.44;88.09
76577;DHT22;65441;44.748;37.600;2023-05-02T02:20:00;10.49;87.91
76577;DHT22;65441;44.748;37.600;2023-05-02T02:22:33;10.46;87.59
76577;DHT22;65441;44.748;37.600;2023-05-02T02:25:06;10.45;87.83
76577;DHT22;65441;44.748;37.600;2023-05-02T02:27:36;10.49;87.99
76577;DHT22;65441;44.748;37.600;2023-05-02T02:30:08;10.49;87.86
76577;DHT22;65441;44.748;37.600;2023-05-02T02:32:38;10.52;87.78
76577;DHT22;65441;44.748;37.600;2023-05-02T02:35:08;10.55;87.68
76577;DHT22;65441;44.748;37.600;2023-05-02T02:37:40;10.51;87.64
76577;DHT22;65441;44.748;37.600;2023-05-02T02:40:20;10.51;87.58
76577;DHT22;65441;44.748;37.600;2023-05-02T02:42:57;10.42;87.51
76577;DHT22;65441;44.748;37.600;2023-05-02T02:45:34;10.49;88.25
76577;DHT22;65441;44.748;37.600;2023-05-02T02:48:13;10.50;87.61
76577;DHT22;65441;44.748;37.600;2023-05-02T02:50:55;10.54;88.24
76577;DHT22;65441;44.748;37.600;2023-05-02T02:53:43;10.57;87.83
76577;DHT22;65441;44.748;37.600;2023-05-02T02:56:15;10.67;87.27
76577;DHT22;65441;44.748;37.600;2023-05-02T02:58:54;10.67;88.06
76577;DHT22;65441;44.748;37.600;2023-05-02T03:01:27;10.64;87.50
76577;DHT22;65441;44.748;37.600;2023-05-02T03:03:58;10.67;87.40
76577;DHT22;65441;44.748;37.600;2023-05-02T03:06:29;10.72;87.21
76577;DHT22;65441;44.748;37.600;2023-05-02T03:08:58;10.75;87.39
76577;DHT22;65441;44.748;37.600;2023-05-02T03:11:30;10.81;87.44
76577;DHT22;65441;44.748;37.600;2023-05-02T03:13:59;10.78;87.31
76577;DHT22;65441;44.748;37.600;2023-05-02T03:16:36;10.87;87.28
76577;DHT22;65441;44.748;37.600;2023-05-02T03:19:09;10.87;87.12
76577;DHT22;65441;44.748;37.600;2023-05-02T03:21:38;10.87;86.77
76577;DHT22;65441;44.748;37.600;2023-05-02T03:24:15;10.89;87.02
76577;DHT22;65441;44.748;37.600;2023-05-02T03:26:44;10.84;87.18
76577;DHT22;65441;44.748;37.600;2023-05-02T03:29:15;10.94;87.03
76577;DHT22;65441;44.748;37.600;2023-05-02T03:31:45;10.99;86.74
76577;DHT22;65441;44.748;37.600;2023-05-02T03:34:14;11.03;87.19
76577;DHT22;65441;44.748;37.600;2023-05-02T03:36:45;10.99;87.42
76577;DHT22;65441;44.748;37.600;2023-05-02T03:39:18;11.08;87.46
76577;DHT22;65441;44.748;37.600;2023-05-02T03:41:48;11.10;87.76
76577;DHT22;65441;44.748;37.600;2023-05-02T03:44:20;11.14;87.70
76577;DHT22;65441;44.748;37.600;2023-05-02T03:46:50;11.17;87.48
76577;DHT22;65441;44.748;37.600;2023-05-02T03:49:20;11.15;87.07
76577;DHT22;65441;44.748;37.600;2023-05-02T03:51:52;11.22;87.52
76577;DHT22;65441;44.748;37.600;2023-05-02T03:54:26;11.26;86.98
76577;DHT22;65441;44.748;37.600;2023-05-02T03:56:55;11.34;87.20
76577;DHT22;65441;44.748;37.600;2023-05-02T03:59:31;11.39;86.64
76577;DHT22;65441;44.748;37.600;2023-05-02T04:02:04;11.36;86.45
76577;DHT22;65441;44.748;37.600;2023-05-02T04:04:40;11.40;87.42
76577;DHT22;65441;44.748;37.600;2023-05-02T04:07:11;11.49;87.27
76577;DHT22;65441;44.748;37.600;2023-05-02T04:09:46;11.53;86.99
76577;DHT22;65441;44.748;37.600;2023-05-02T04:12:15;11.56;87.27
76577;DHT22;65441;44.748;37.600;2023-05-02T04:14:48;11.61;86.74
76577;DHT22;65441;44.748;37.600;2023-05-02T04:17:19;11.71;87.61
76577;DHT22;65441;44.748;37.600;2023-05-02T04:19:50;11.72;87.97
76577;DHT22;65441;44.748;37.600;2023-05-02T04:22:23;11.78;86.61
76577;DHT22;65441;44.748;37.600;2023-05-02T04:25:01;11.73;84.72
76577;DHT22;65441;44.748;37.600;2023-05-02T04:27:31;11.59;85.22
76577;DHT22;65441;44.748;37.600;2023-05-02T04:30:00;11.49;85.95
76577;DHT22;65441;44.748;37.600;2023-05-02T04:32:30;11.40;86.32
76577;DHT22;65441;44.748;37.600;2023-05-02T04:35:01;11.43;87.22
76577;DHT22;65441;44.748;37.600;2023-05-02T04:37:30;11.48;86.21
76577;DHT22;65441;44.748;37.600;2023-05-02T04:40:00;11.40;87.09
76577;DHT22;65441;44.748;37.600;2023-05-02T04:42:31;11.49;87.30
76577;DHT22;65441;44.748;37.600;2023-05-02T04:45:11;11.62;87.35
76577;DHT22;65441;44.748;37.600;2023-05-02T04:47:44;11.56;86.32
76577;DHT22;65441;44.748;37.600;2023-05-02T04:50:13;11.71;85.91
76577;DHT22;65441;44.748;37.600;2023-05-02T04:52:42;11.97;86.49
76577;DHT22;65441;44.748;37.600;2023-05-02T04:55:11;12.03;86.03
76577;DHT22;65441;44.748;37.600;2023-05-02T04:57:40;12.07;85.10
76577;DHT22;65441;44.748;37.600;2023-05-02T05:00:13;12.25;84.78
76577;DHT22;65441;44.748;37.600;2023-05-02T05:02:44;12.30;83.67
76577;DHT22;65441;44.748;37.600;2023-05-02T05:05:14;12.29;84.03
76577;DHT22;65441;44.748;37.600;2023-05-02T05:07:43;12.17;84.32
76577;DHT22;65441;44.748;37.600;2023-05-02T05:10:12;12.32;85.41
76577;DHT22;65441;44.748;37.600;2023-05-02T05:12:45;12.27;84.61
76577;DHT22;65441;44.748;37.600;2023-05-02T05:15:15;12.19;86.51
76577;DHT22;65441;44.748;37.600;2023-05-02T05:17:53;12.12;85.32
76577;DHT22;65441;44.748;37.600;2023-05-02T05:20:22;12.06;86.00
76577;DHT22;65441;44.748;37.600;2023-05-02T05:22:54;12.03;84.18
76577;DHT22;65441;44.748;37.600;2023-05-02T05:25:25;12.11;85.81
76577;DHT22;65441;44.748;37.600;2023-05-02T05:27:55;12.19;85.48
76577;DHT22;65441;44.748;37.600;2023-05-02T05:30:25;12.18;85.82
76577;DHT22;65441;44.748;37.600;2023-05-02T05:32:55;12.28;85.73
76577;DHT22;65441;44.748;37.600;2023-05-02T05:35:24;12.20;85.50
76577;DHT22;65441;44.748;37.600;2023-05-02T05:37:53;12.23;85.74
76577;DHT22;65441;44.748;37.600;2023-05-02T05:40:22;12.22;86.23
76577;DHT22;65441;44.748;37.600;2023-05-02T05:42:56;12.35;84.74
76577;DHT22;65441;44.748;37.600;2023-05-02T05:45:29;12.34;84.79
76577;DHT22;65441;44.748;37.600;2023-05-02T05:48:00;12.55;84.19
76577;DHT22;65441;44.748;37.600;2023-05-02T05:50:33;12.57;82.97
76577;DHT22;65441;44.748;37.600;2023-05-02T05:53:02;12.74;84.43
76577;DHT22;65441;44.748;37.600;2023-05-02T05:55:31;12.65;82.75
76577;DHT22;65441;44.748;37.600;2023-05-02T05:58:01;12.69;82.70
76577;DHT22;65441;44.748;37.600;2023-05-02T06:00:30;12.93;83.16
76577;DHT22;65441;44.748;37.600;2023-05-02T06:03:04;13.22;79.74
76577;DHT22;65441;44.748;37.600;2023-05-02T06:05:33;13.54;81.23
76577;DHT22;65441;44.748;37.600;2023-05-02T06:08:02;13.80;77.90
76577;DHT22;65441;44.748;37.600;2023-05-02T06:10:31;13.88;77.16
76577;DHT22;65441;44.748;37.600;2023-05-02T06:13:00;14.34;76.18
76577;DHT22;65441;44.748;37.600;2023-05-02T06:15:41;14.63;76.43
76577;DHT22;65441;44.748;37.600;2023-05-02T06:18:12;14.56;76.94
76577;DHT22;65441;44.748;37.600;2023-05-02T06:20:43;14.59;74.28
76577;DHT22;65441;44.748;37.600;2023-05-02T06:23:15;14.56;74.28
76577;DHT22;65441;44.748;37.600;2023-05-02T06:25:47;14.51;75.04
76577;DHT22;65441;44.748;37.600;2023-05-02T06:28:16;14.66;73.11
76577;DHT22;65441;44.748;37.600;2023-05-02T06:30:44;14.62;78.42
76577;DHT22;65441;44.748;37.600;2023-05-02T06:33:15;14.81;77.63
76577;DHT22;65441;44.748;37.600;2023-05-02T06:35:50;14.28;75.99
76577;DHT22;65441;44.748;37.600;2023-05-02T06:38:19;13.96;77.54
76577;DHT22;65441;44.748;37.600;2023-05-02T06:40:48;14.30;75.82
76577;DHT22;65441;44.748;37.600;2023-05-02T06:43:17;15.07;74.99
76577;DHT22;65441;44.748;37.600;2023-05-02T06:45:46;15.17;74.90
76577;DHT22;65441;44.748;37.600;2023-05-02T06:48:16;15.10;73.30
76577;DHT22;65441;44.748;37.600;2023-05-02T06:50:45;14.72;75.06
76577;DHT22;65441;44.748;37.600;2023-05-02T06:53:14;14.88;74.24
76577;DHT22;65441;44.748;37.600;2023-05-02T06:55:43;14.57;74.03
76577;DHT22;65441;44.748;37.600;2023-05-02T06:58:13;14.65;77.07
76577;DHT22;65441;44.748;37.600;2023-05-02T07:00:42;14.88;75.74
76577;DHT22;65441;44.748;37.600;2023-05-02T07:03:11;15.16;73.44
76577;DHT22;65441;44.748;37.600;2023-05-02T07:05:41;15.25;74.27
76577;DHT22;65441;44.748;37.600;2023-05-02T07:08:10;15.81;72.45
76577;DHT22;65441;44.748;37.600;2023-05-02T07:10:38;16.16;68.42
76577;DHT22;65441;44.748;37.600;2023-05-02T07:13:07;15.86;68.69
76577;DHT22;65441;44.748;37.600;2023-05-02T07:15:36;15.58;69.94
76577;DHT22;65441;44.748;37.600;2023-05-02T07:18:05;15.25;72.04
76577;DHT22;65441;44.748;37.600;2023-05-02T07:20:34;15.27;73.92
76577;DHT22;65441;44.748;37.600;2023-05-02T07:23:06;15.39;70.99
76577;DHT22;65441;44.748;37.600;2023-05-02T07:25:35;15.57;71.55
76577;DHT22;65441;44.748;37.600;2023-05-02T07:28:09;15.36;70.68
76577;DHT22;65441;44.748;37.600;2023-05-02T07:30:38;15.45;71.97
76577;DHT22;65441;44.748;37.600;2023-05-02T07:33:07;15.72;73.19
76577;DHT22;65441;44.748;37.600;2023-05-02T07:35:35;16.03;70.74
76577;DHT22;65441;44.748;37.600;2023-05-02T07:38:05;16.67;68.42
76577;DHT22;65441;44.748;37.600;2023-05-02T07:40:34;17.13;67.84
76577;DHT22;65441;44.748;37.600;2023-05-02T07:43:03;17.54;65.13
76577;DHT22;65441;44.748;37.600;2023-05-02T07:45:32;17.33;67.04
76577;DHT22;65441;44.748;37.600;2023-05-02T07:48:02;16.86;65.83
76577;DHT22;65441;44.748;37.600;2023-05-02T07:50:31;17.51;64.74
76577;DHT22;65441;44.748;37.600;2023-05-02T07:53:00;17.14;64.28
76577;DHT22;65441;44.748;37.600;2023-05-02T07:55:30;17.04;67.16
76577;DHT22;65441;44.748;37.600;2023-05-02T07:57:59;16.94;64.32
76577;DHT22;65441;44.748;37.600;2023-05-02T08:00:28;16.77;64.93
76577;DHT22;65441;44.748;37.600;2023-05-02T08:02:57;16.28;69.40
76577;DHT22;65441;44.748;37.600;2023-05-02T08:05:26;16.22;69.18
76577;DHT22;65441;44.748;37.600;2023-05-02T08:07:55;16.34;68.54
76577;DHT22;65441;44.748;37.600;2023-05-02T08:10:24;16.32;69.49
76577;DHT22;65441;44.748;37.600;2023-05-02T08:12:57;16.47;68.26
76577;DHT22;65441;44.748;37.600;2023-05-02T08:15:26;16.34;66.96
76577;DHT22;65441;44.748;37.600;2023-05-02T08:17:54;16.47;67.24
76577;DHT22;65441;44.748;37.600;2023-05-02T08:20:23;17.11;66.14
76577;DHT22;65441;44.748;37.600;2023-05-02T08:22:52;17.50;66.27
76577;DHT22;65441;44.748;37.600;2023-05-02T08:25:21;18.14;63.29
76577;DHT22;65441;44.748;37.600;2023-05-02T08:27:52;18.03;62.17
76577;DHT22;65441;44.748;37.600;2023-05-02T08:30:23;18.53;62.25
76577;DHT22;65441;44.748;37.600;2023-05-02T08:32:52;18.40;59.54
76577;DHT22;65441;44.748;37.600;2023-05-02T08:35:21;18.20;62.17
76577;DHT22;65441;44.748;37.600;2023-05-02T08:37:49;18.40;60.64
76577;DHT22;65441;44.748;37.600;2023-05-02T08:40:19;17.99;60.97
76577;DHT22;65441;44.748;37.600;2023-05-02T08:42:53;17.61;59.44
76577;DHT22;65441;44.748;37.600;2023-05-02T08:45:25;17.51;62.44
76577;DHT22;65441;44.748;37.600;2023-05-02T08:47:55;18.18;60.67
76577;DHT22;65441;44.748;37.600;2023-05-02T08:50:24;17.77;53.72
76577;DHT22;65441;44.748;37.600;2023-05-02T08:52:55;18.37;55.81
76577;DHT22;65441;44.748;37.600;2023-05-02T08:55:24;19.02;57.20
76577;DHT22;65441;44.748;37.600;2023-05-02T08:57:56;19.08;54.33
76577;DHT22;65441;44.748;37.600;2023-05-02T09:00:27;19.17;50.32
76577;DHT22;65441;44.748;37.600;2023-05-02T09:03:05;18.50;56.19
76577;DHT22;65441;44.748;37.600;2023-05-02T09:05:39;18.38;51.42
76577;DHT22;65441;44.748;37.600;2023-05-02T09:08:08;18.71;54.87
76577;DHT22;65441;44.748;37.600;2023-05-02T09:10:38;19.25;55.78
76577;DHT22;65441;44.748;37.600;2023-05-02T09:13:30;19.30;56.46
76577;DHT22;65441;44.748;37.600;2023-05-02T09:16:02;19.32;56.84
76577;DHT22;65441;44.748;37.600;2023-05-02T09:18:32;18.76;54.43
76577;DHT22;65441;44.748;37.600;2023-05-02T09:21:04;18.82;56.09
76577;DHT22;65441;44.748;37.600;2023-05-02T09:23:35;18.50;55.07
76577;DHT22;65441;44.748;37.600;2023-05-02T09:26:18;17.93;56.81
76577;DHT22;65441;44.748;37.600;2023-05-02T09:28:48;17.67;57.42
76577;DHT22;65441;44.748;37.600;2023-05-02T09:31:19;17.79;58.97
76577;DHT22;65441;44.748;37.600;2023-05-02T09:33:49;17.67;55.14
76577;DHT22;65441;44.748;37.600;2023-05-02T09:36:19;17.41;55.78
76577;DHT22;65441;44.748;37.600;2023-05-02T09:38:48;17.49;55.50
76577;DHT22;65441;44.748;37.600;2023-05-02T09:41:17;18.09;57.22
76577;DHT22;65441;44.748;37.600;2023-05-02T09:43:54;18.55;54.12
76577;DHT22;65441;44.748;37.600;2023-05-02T09:46:26;18.03;57.00
76577;DHT22;65441;44.748;37.600;2023-05-02T09:49:07;18.39;60.54
76577;DHT22;65441;44.748;37.600;2023-05-02T09:51:36;18.66;60.85
76577;DHT22;65441;44.748;37.600;2023-05-02T09:54:05;18.19;56.13
76577;DHT22;65441;44.748;37.600;2023-05-02T09:56:50;17.96;57.81
76577;DHT22;65441;44.748;37.600;2023-05-02T09:59:19;17.39;56.77
76577;DHT22;65441;44.748;37.600;2023-05-02T10:01:56;16.79;60.54
76577;DHT22;65441;44.748;37.600;2023-05-02T10:04:26;16.44;61.88
76577;DHT22;65441;44.748;37.600;2023-05-02T10:06:56;16.56;62.87
76577;DHT22;65441;44.748;37.600;2023-05-02T10:09:25;16.74;61.25
76577;DHT22;65441;44.748;37.600;2023-05-02T10:11:55;16.32;64.63
76577;DHT22;65441;44.748;37.600;2023-05-02T10:14:24;16.04;66.20
76577;DHT22;65441;44.748;37.600;2023-05-02T10:16:59;16.33;65.07
76577;DHT22;65441;44.748;37.600;2023-05-02T10:19:37;16.47;65.73
76577;DHT22;65441;44.748;37.600;2023-05-02T10:22:07;16.17;66.23
76577;DHT22;65441;44.748;37.600;2023-05-02T10:24:44;15.95;67.94
76577;DHT22;65441;44.748;37.600;2023-05-02T10:27:17;15.97;66.88
76577;DHT22;65441;44.748;37.600;2023-05-02T10:29:46;15.71;67.95
76577;DHT22;65441;44.748;37.600;2023-05-02T10:32:17;15.72;67.14
76577;DHT22;65441;44.748;37.600;2023-05-02T10:34:49;15.71;68.23
76577;DHT22;65441;44.748;37.600;2023-05-02T10:37:19;15.27;68.75
76577;DHT22;65441;44.748;37.600;2023-05-02T10:39:49;15.03;68.65
76577;DHT22;65441;44.748;37.600;2023-05-02T10:42:19;15.23;69.87
76577;DHT22;65441;44.748;37.600;2023-05-02T10:44:48;15.23;69.10
76577;DHT22;65441;44.748;37.600;2023-05-02T10:47:20;15.19;68.75
76577;DHT22;65441;44.748;37.600;2023-05-02T10:49:50;15.06;71.38
76577;DHT22;65441;44.748;37.600;2023-05-02T10:52:27;14.77;73.05
76577;DHT22;65441;44.748;37.600;2023-05-02T10:55:18;14.59;72.29
76577;DHT22;65441;44.748;37.600;2023-05-02T10:58:21;14.55;73.11
76577;DHT22;65441;44.748;37.600;2023-05-02T11:00:50;14.49;70.64
76577;DHT22;65441;44.748;37.600;2023-05-02T11:03:55;14.37;70.93
76577;DHT22;65441;44.748;37.600;2023-05-02T11:06:25;14.74;69.90
76577;DHT22;65441;44.748;37.600;2023-05-02T11:11:57;14.58;72.22
76577;DHT22;65441;44.748;37.600;2023-05-02T11:14:43;14.54;71.05
76577;DHT22;65441;44.748;37.600;2023-05-02T11:17:13;14.56;72.59
76577;DHT22;65441;44.748;37.600;2023-05-02T11:22:57;14.82;72.19
76577;DHT22;65441;44.748;37.600;2023-05-02T11:25:34;14.69;72.12
76577;DHT22;65441;44.748;37.600;2023-05-02T11:28:05;14.67;71.96
76577;DHT22;65441;44.748;37.600;2023-05-02T11:30:43;14.60;72.41
76577;DHT22;65441;44.748;37.600;2023-05-02T11:33:15;14.55;70.91
76577;DHT22;65441;44.748;37.600;2023-05-02T11:35:45;14.60;70.35
76577;DHT22;65441;44.748;37.600;2023-05-02T11:38:18;14.47;69.62
76577;DHT22;65441;44.748;37.600;2023-05-02T11:40:56;14.18;70.86
76577;DHT22;65441;44.748;37.600;2023-05-02T11:43:26;14.30;71.51
76577;DHT22;65441;44.748;37.600;2023-05-02T11:45:56;14.78;72.89
76577;DHT22;65441;44.748;37.600;2023-05-02T11:48:26;14.80;70.07
76577;DHT22;65441;44.748;37.600;2023-05-02T11:50:57;14.91;70.94
76577;DHT22;65441;44.748;37.600;2023-05-02T11:53:30;15.27;70.48
76577;DHT22;65441;44.748;37.600;2023-05-02T11:56:00;15.23;67.39
76577;DHT22;65441;44.748;37.600;2023-05-02T11:58:30;15.19;71.01
76577;DHT22;65441;44.748;37.600;2023-05-02T12:01:10;15.33;67.70
76577;DHT22;65441;44.748;37.600;2023-05-02T12:03:40;15.46;75.57
76577;DHT22;65441;44.748;37.600;2023-05-02T12:06:10;15.61;74.26
76577;DHT22;65441;44.748;37.600;2023-05-02T12:08:42;15.48;68.17
76577;DHT22;65441;44.748;37.600;2023-05-02T12:11:12;15.42;70.93
76577;DHT22;65441;44.748;37.600;2023-05-02T12:13:45;15.17;68.40
76577;DHT22;65441;44.748;37.600;2023-05-02T12:16:15;14.87;69.09
76577;DHT22;65441;44.748;37.600;2023-05-02T12:18:44;14.56;71.44
76577;DHT22;65441;44.748;37.600;2023-05-02T12:21:14;14.56;70.81
76577;DHT22;65441;44.748;37.600;2023-05-02T12:23:45;14.64;69.42
76577;DHT22;65441;44.748;37.600;2023-05-02T12:26:19;14.74;70.55
76577;DHT22;65441;44.748;37.600;2023-05-02T12:28:51;14.78;68.50
76577;DHT22;65441;44.748;37.600;2023-05-02T12:31:21;14.70;70.25
76577;DHT22;65441;44.748;37.600;2023-05-02T12:33:50;14.79;70.23
76577;DHT22;65441;44.748;37.600;2023-05-02T12:36:23;14.67;71.55
76577;DHT22;65441;44.748;37.600;2023-05-02T12:38:55;14.67;71.90
76577;DHT22;65441;44.748;37.600;2023-05-02T12:41:30;14.66;71.99
76577;DHT22;65441;44.748;37.600;2023-05-02T12:44:00;14.52;72.01
76577;DHT22;65441;44.748;37.600;2023-05-02T12:46:29;14.56;73.33
76577;DHT22;65441;44.748;37.600;2023-05-02T12:49:02;14.52;71.88
76577;DHT22;65441;44.748;37.600;2023-05-02T12:51:31;14.44;72.26
76577;DHT22;65441;44.748;37.600;2023-05-02T12:54:02;14.40;72.38
76577;DHT22;65441;44.748;37.600;2023-05-02T12:56:37;14.39;73.56
76577;DHT22;65441;44.748;37.600;2023-05-02T12:59:06;14.41;73.00
76577;DHT22;65441;44.748;37.600;2023-05-02T13:01:35;14.30;73.04
76577;DHT22;65441;44.748;37.600;2023-05-02T13:04:04;14.41;73.09
76577;DHT22;65441;44.748;37.600;2023-05-02T13:06:33;14.29;73.72
76577;DHT22;65441;44.748;37.600;2023-05-02T13:09:05;14.32;75.62
76577;DHT22;65441;44.748;37.600;2023-05-02T13:11:34;14.26;74.99
76577;DHT22;65441;44.748;37.600;2023-05-02T13:14:03;14.15;76.02
76577;DHT22;65441;44.748;37.600;2023-05-02T13:16:32;14.18;74.37
76577;DHT22;65441;44.748;37.600;2023-05-02T13:19:03;14.24;74.62
76577;DHT22;65441;44.748;37.600;2023-05-02T13:21:31;14.24;75.31
76577;DHT22;65441;44.748;37.600;2023-05-02T13:24:00;14.36;74.09
76577;DHT22;65441;44.748;37.600;2023-05-02T13:26:31;14.22;74.04
76577;DHT22;65441;44.748;37.600;2023-05-02T13:29:00;14.00;74.83
76577;DHT22;65441;44.748;37.600;2023-05-02T13:31:29;13.93;76.02
76577;DHT22;65441;44.748;37.600;2023-05-02T13:33:58;13.86;75.63
76577;DHT22;65441;44.748;37.600;2023-05-02T13:36:27;13.93;75.76
76577;DHT22;65441;44.748;37.600;2023-05-02T13:38:56;14.00;75.00
76577;DHT22;65441;44.748;37.600;2023-05-02T13:41:25;14.09;74.54
76577;DHT22;65441;44.748;37.600;2023-05-02T13:43:55;13.98;75.93
76577;DHT22;65441;44.748;37.600;2023-05-02T13:46:26;13.91;76.17
76577;DHT22;65441;44.748;37.600;2023-05-02T13:48:55;13.90;76.02
76577;DHT22;65441;44.748;37.600;2023-05-02T13:51:24;13.99;75.89
76577;DHT22;65441;44.748;37.600;2023-05-02T13:53:53;13.89;75.37
76577;DHT22;65441;44.748;37.600;2023-05-02T13:56:22;13.86;75.86
76577;DHT22;65441;44.748;37.600;2023-05-02T13:58:51;13.91;76.42
76577;DHT22;65441;44.748;37.600;2023-05-02T14:01:21;13.82;76.31
76577;DHT22;65441;44.748;37.600;2023-05-02T14:03:52;13.71;76.98
76577;DHT22;65441;44.748;37.600;2023-05-02T14:06:21;13.64;77.15
76577;DHT22;65441;44.748;37.600;2023-05-02T14:08:50;13.66;78.60
76577;DHT22;65441;44.748;37.600;2023-05-02T14:11:19;13.65;78.40
76577;DHT22;65441;44.748;37.600;2023-05-02T14:13:48;13.52;79.30
76577;DHT22;65441;44.748;37.600;2023-05-02T14:16:17;13.38;79.56
76577;DHT22;65441;44.748;37.600;2023-05-02T14:18:47;13.30;79.85
76577;DHT22;65441;44.748;37.600;2023-05-02T14:21:16;13.32;81.43
76577;DHT22;65441;44.748;37.600;2023-05-02T14:23:45;13.29;80.74
76577;DHT22;65441;44.748;37.600;2023-05-02T14:26:14;13.10;81.62
76577;DHT22;65441;44.748;37.600;2023-05-02T14:28:42;13.11;82.03
76577;DHT22;65441;44.748;37.600;2023-05-02T14:31:12;12.97;82.88
76577;DHT22;65441;44.748;37.600;2023-05-02T14:33:41;12.86;83.50
76577;DHT22;65441;44.748;37.600;2023-05-02T14:36:11;12.81;84.68
76577;DHT22;65441;44.748;37.600;2023-05-02T14:38:40;13.03;86.31
76577;DHT22;65441;44.748;37.600;2023-05-02T14:41:09;13.54;89.63
76577;DHT22;65441;44.748;37.600;2023-05-02T14:43:38;13.58;85.16
76577;DHT22;65441;44.748;37.600;2023-05-02T14:46:11;13.74;80.19
76577;DHT22;65441;44.748;37.600;2023-05-02T14:48:40;13.76;80.28
76577;DHT22;65441;44.748;37.600;2023-05-02T14:51:08;13.64;82.35
76577;DHT22;65441;44.748;37.600;2023-05-02T14:53:39;13.78;84.20
76577;DHT22;65441;44.748;37.600;2023-05-02T14:56:11;13.48;83.34
76577;DHT22;65441;44.748;37.600;2023-05-02T14:58:42;13.51;89.00
76577;DHT22;65441;44.748;37.600;2023-05-02T15:01:17;13.49;81.97
76577;DHT22;65441;44.748;37.600;2023-05-02T15:03:46;13.60;82.91
76577;DHT22;65441;44.748;37.600;2023-05-02T15:06:15;13.67;85.23
76577;DHT22;65441;44.748;37.600;2023-05-02T15:08:46;13.66;85.75
76577;DHT22;65441;44.748;37.600;2023-05-02T15:11:16;13.70;86.16
76577;DHT22;65441;44.748;37.600;2023-05-02T15:13:45;13.81;83.72
76577;DHT22;65441;44.748;37.600;2023-05-02T15:16:14;13.69;82.13
76577;DHT22;65441;44.748;37.600;2023-05-02T15:18:43;14.01;87.39
76577;DHT22;65441;44.748;37.600;2023-05-02T15:21:11;14.03;81.93
76577;DHT22;65441;44.748;37.600;2023-05-02T15:23:40;14.36;86.06
76577;DHT22;65441;44.748;37.600;2023-05-02T15:26:10;14.52;82.57
76577;DHT22;65441;44.748;37.600;2023-05-02T15:28:39;14.32;83.16
76577;DHT22;65441;44.748;37.600;2023-05-02T15:31:08;14.41;79.20
76577;DHT22;65441;44.748;37.600;2023-05-02T15:33:37;14.23;82.22
76577;DHT22;65441;44.748;37.600;2023-05-02T15:36:06;14.35;80.93
76577;DHT22;65441;44.748;37.600;2023-05-02T15:38:35;14.10;81.12
76577;DHT22;65441;44.748;37.600;2023-05-02T15:41:05;14.11;80.59
76577;DHT22;65441;44.748;37.600;2023-05-02T15:43:36;14.28;82.12
76577;DHT22;65441;44.748;37.600;2023-05-02T15:46:05;14.67;79.67